createdAt,value
2023-05-13T00:08:07.493Z,15.43
2023-05-13T00:18:10.543Z,15.42
2023-05-13T00:28:15.200Z,15.24
2023-05-13T00:38:18.085Z,15.08
2023-05-13T00:48:22.924Z,14.97
2023-05-13T00:58:25.962Z,14.90
2023-05-13T01:08:48.646Z,14.77
2023-05-13T01:18:57.860Z,14.67
2023-05-13T01:29:02.802Z,14.47
2023-05-13T01:39:06.626Z,14.25
2023-05-13T01:49:11.172Z,14.13
2023-05-13T01:59:14.302Z,13.93
2023-05-13T02:09:18.789Z,13.82
2023-05-13T02:19:21.845Z,13.66
2023-05-13T02:29:26.309Z,13.44
2023-05-13T02:39:29.931Z,13.25
2023-05-13T02:49:36.381Z,13.12
2023-05-13T02:59:39.670Z,13.01
2023-05-13T03:09:44.088Z,12.89
2023-05-13T03:19:47.104Z,12.77
2023-05-13T03:29:52.022Z,12.66
2023-05-13T03:39:55.850Z,12.51
2023-05-13T03:50:00.607Z,12.46
2023-05-13T04:00:10.072Z,12.30
2023-05-13T04:10:19.099Z,12.14
2023-05-13T04:20:22.528Z,12.08
2023-05-13T04:30:27.160Z,12.10
2023-05-13T04:40:30.235Z,12.13
2023-05-13T04:50:38.606Z,12.18
2023-05-13T05:00:43.103Z,12.26
2023-05-13T05:10:47.609Z,12.48
2023-05-13T05:20:51.649Z,12.65
2023-05-13T05:30:58.581Z,12.82
2023-05-13T05:41:04.218Z,13.19
2023-05-13T05:51:09.346Z,13.27
2023-05-13T06:01:12.964Z,13.44
2023-05-13T06:11:17.752Z,13.57
2023-05-13T06:21:21.084Z,13.70
2023-05-13T06:31:27.191Z,13.93
2023-05-13T06:41:29.987Z,14.20
2023-05-13T06:51:41.229Z,14.42
2023-05-13T07:01:44.278Z,14.71
2023-05-13T07:11:48.688Z,15.22
2023-05-13T07:21:51.624Z,15.09
2023-05-13T07:31:55.906Z,15.21
2023-05-13T07:41:59.918Z,15.90
2023-05-13T07:52:04.548Z,16.39
2023-05-13T08:02:08.393Z,17.20
2023-05-13T08:12:12.689Z,17.17
2023-05-13T08:22:15.728Z,17.95
2023-05-13T08:32:20.222Z,17.96
2023-05-13T08:42:24.323Z,18.21
2023-05-13T08:52:29.173Z,18.64
2023-05-13T09:02:32.219Z,18.54
2023-05-13T09:12:47.125Z,18.91
2023-05-13T09:22:52.112Z,19.35
2023-05-13T09:33:14.512Z,19.59
2023-05-13T09:43:18.086Z,20.09
2023-05-13T09:53:22.490Z,20.30
2023-05-13T10:03:26.064Z,20.72
2023-05-13T10:13:33.097Z,21.13
2023-05-13T10:23:36.867Z,21.32
2023-05-13T10:33:41.153Z,21.76
2023-05-13T10:43:44.204Z,21.90
2023-05-13T10:53:51.244Z,22.18
2023-05-13T11:03:55.879Z,22.52
2023-05-13T11:14:09.508Z,22.78
2023-05-13T11:24:18.127Z,22.93
2023-05-13T11:34:22.412Z,23.38
2023-05-13T11:44:26.343Z,23.81
2023-05-13T11:54:31.018Z,23.85
2023-05-13T12:04:34.242Z,24.32
2023-05-13T12:14:39.195Z,23.96
2023-05-13T12:24:42.204Z,24.25
2023-05-13T12:34:50.784Z,24.20
2023-05-13T12:44:53.793Z,23.75
2023-05-13T12:54:58.099Z,24.20
2023-05-13T13:05:01.009Z,24.49
2023-05-13T13:15:05.892Z,24.05
2023-05-13T13:25:09.501Z,24.44
2023-05-13T13:35:13.786Z,24.31
2023-05-13T13:45:16.707Z,24.32
2023-05-13T13:55:21.533Z,25.15
2023-05-13T14:05:24.628Z,25.31
2023-05-13T14:15:30.826Z,25.86
2023-05-13T14:25:33.823Z,24.93
2023-05-13T14:35:38.131Z,25.30
2023-05-13T14:45:41.145Z,26.20
2023-05-13T14:55:45.808Z,26.20
2023-05-13T15:05:50.287Z,25.42
2023-05-13T15:15:54.866Z,25.68
2023-05-13T15:25:58.208Z,24.97
2023-05-13T15:36:02.508Z,24.94
2023-05-13T15:46:06.029Z,24.73
2023-05-13T15:56:10.549Z,23.89
2023-05-13T16:06:13.540Z,23.63
2023-05-13T16:16:18.002Z,23.31
2023-05-13T16:26:21.492Z,22.94
2023-05-13T16:36:26.668Z,22.63
2023-05-13T16:46:30.233Z,22.92
2023-05-13T16:56:34.725Z,22.60
2023-05-13T17:06:37.631Z,22.64
2023-05-13T17:16:42.541Z,22.70
2023-05-13T17:26:45.619Z,22.36
2023-05-13T17:36:50.382Z,22.27
2023-05-13T17:46:53.679Z,22.41
2023-05-13T17:56:58.185Z,22.41
2023-05-13T18:07:01.218Z,22.05
2023-05-13T18:17:06.111Z,21.84
2023-05-13T18:27:09.448Z,21.59
2023-05-13T18:37:14.985Z,21.41
2023-05-13T18:47:18.052Z,21.16
2023-05-13T18:57:23.856Z,20.92
2023-05-13T19:07:27.201Z,20.55
2023-05-13T19:17:31.694Z,20.14
2023-05-13T19:27:34.860Z,19.90
2023-05-13T19:37:39.124Z,19.73
2023-05-13T19:47:42.237Z,19.65
2023-05-13T19:57:47.546Z,19.40
2023-05-13T20:07:50.593Z,19.16
2023-05-13T20:17:54.965Z,18.95
2023-05-13T20:27:58.024Z,18.79
2023-05-13T20:38:02.419Z,18.70
2023-05-13T20:48:06.058Z,18.64
2023-05-13T20:58:12.132Z,18.44
2023-05-13T21:08:15.189Z,18.08
2023-05-13T21:18:19.450Z,17.72
2023-05-13T21:28:23.787Z,17.41
2023-05-13T21:38:28.553Z,17.22
2023-05-13T21:48:31.558Z,17.04
2023-05-13T21:58:35.894Z,16.86
2023-05-13T22:08:38.893Z,16.76
2023-05-13T22:18:44.088Z,16.59
2023-05-13T22:28:48.547Z,16.40
2023-05-13T22:38:52.868Z,16.31
2023-05-13T22:48:55.842Z,16.14
2023-05-13T22:59:00.109Z,15.95
2023-05-13T23:09:03.087Z,15.75
2023-05-13T23:19:07.452Z,15.63
2023-05-13T23:29:10.533Z,15.39
2023-05-13T23:39:14.949Z,15.27
2023-05-13T23:49:18.227Z,15.08
2023-05-13T23:59:23.776Z,15.01
